ěÝzenÝ letovÚho provozu ╚eskÚ republiky
Letiste: LKKV Aktualizace: 07.07.2020 15:00:26  UTC
 METAR LKKV 07.07. 15:00 ...
METAR LKKV 071500Z 30010KT 260V330 9999 SCT045 17/04 Q1019 RMK REG QNH 1017=
 TAF LKKV 07.07. 11:00 ...
TAF LKKV 071100Z 0712/0818 26006KT CAVOK      TEMPO 0804/0808 VRB02KT      BECMG 0803/0806 BKN030      TEMPO 0809/0818 26016KT 8000 -RA      PROB30 TEMPO 0809/0818 BKN014=